createdAt,value
2022-07-31T00:01:47.228Z,20.37
2022-07-31T00:04:14.335Z,20.35
2022-07-31T00:06:41.427Z,20.31
2022-07-31T00:09:08.163Z,20.29
2022-07-31T00:11:55.376Z,20.26
2022-07-31T00:14:22.152Z,20.24
2022-07-31T00:16:49.070Z,20.21
2022-07-31T00:19:17.522Z,20.20
2022-07-31T00:21:44.375Z,20.19
2022-07-31T00:24:11.148Z,20.17
2022-07-31T00:26:38.151Z,20.15
2022-07-31T00:29:04.869Z,20.14
2022-07-31T00:31:31.638Z,20.12
2022-07-31T00:34:01.514Z,20.10
2022-07-31T00:36:30.108Z,20.10
2022-07-31T00:38:59.495Z,20.09
2022-07-31T00:41:26.278Z,20.09
2022-07-31T00:43:53.198Z,20.08
2022-07-31T00:46:20.016Z,20.07
2022-07-31T00:48:50.009Z,20.04
2022-07-31T00:51:16.848Z,20.03
2022-07-31T00:53:43.642Z,20.03
2022-07-31T00:56:10.495Z,20.01
2022-07-31T00:58:37.301Z,20.02
2022-07-31T01:01:04.186Z,20.00
2022-07-31T01:03:31.194Z,19.99
2022-07-31T01:05:58.024Z,19.98
2022-07-31T01:08:24.826Z,19.97
2022-07-31T01:11:11.372Z,19.95
2022-07-31T01:13:49.049Z,19.93
2022-07-31T01:16:15.888Z,19.91
2022-07-31T01:18:42.720Z,19.88
2022-07-31T01:21:11.970Z,19.87
2022-07-31T01:23:54.895Z,19.84
2022-07-31T01:26:48.453Z,19.83
2022-07-31T01:29:29.016Z,19.78
2022-07-31T01:32:03.114Z,19.76
2022-07-31T01:34:42.070Z,19.73
2022-07-31T01:37:14.678Z,19.69
2022-07-31T01:40:03.521Z,19.65
2022-07-31T01:42:30.630Z,19.61
2022-07-31T01:44:59.617Z,19.59
2022-07-31T01:47:27.780Z,19.57
2022-07-31T01:49:54.819Z,19.55
2022-07-31T01:52:22.717Z,19.55
2022-07-31T01:54:49.728Z,19.56
2022-07-31T01:57:18.698Z,19.57
2022-07-31T01:59:49.705Z,19.56
2022-07-31T02:02:42.270Z,19.55
2022-07-31T02:05:10.455Z,19.52
2022-07-31T02:07:37.918Z,19.51
2022-07-31T02:10:05.423Z,19.49
2022-07-31T02:12:34.117Z,19.47
2022-07-31T02:15:06.826Z,19.44
2022-07-31T02:17:34.543Z,19.42
2022-07-31T02:20:19.786Z,19.43
2022-07-31T02:22:48.337Z,19.43
2022-07-31T02:25:15.661Z,19.41
2022-07-31T02:27:57.941Z,19.39
2022-07-31T02:30:38.819Z,19.39
2022-07-31T02:33:09.253Z,19.38
2022-07-31T02:35:36.094Z,19.38
2022-07-31T02:38:02.834Z,19.37
2022-07-31T02:40:29.670Z,19.35
2022-07-31T02:42:56.497Z,19.37
2022-07-31T02:45:23.417Z,19.36
2022-07-31T02:47:50.302Z,19.35
2022-07-31T02:50:20.245Z,19.33
2022-07-31T02:52:47.867Z,19.30
2022-07-31T02:55:14.668Z,19.30
2022-07-31T02:57:44.508Z,19.28
2022-07-31T03:00:23.094Z,19.27
2022-07-31T03:02:51.090Z,19.26
2022-07-31T03:05:18.150Z,19.25
2022-07-31T03:07:46.103Z,19.25
2022-07-31T03:10:16.203Z,19.26
2022-07-31T03:12:55.145Z,19.24
2022-07-31T03:15:24.212Z,19.26
2022-07-31T03:17:51.267Z,19.26
2022-07-31T03:20:22.369Z,19.26
2022-07-31T03:22:49.194Z,19.28
2022-07-31T03:25:21.576Z,19.31
2022-07-31T03:27:55.524Z,19.31
2022-07-31T03:30:26.833Z,19.33
2022-07-31T03:32:55.854Z,19.31
2022-07-31T03:35:24.142Z,19.36
2022-07-31T03:37:51.481Z,19.37
2022-07-31T03:40:18.311Z,19.42
2022-07-31T03:42:45.328Z,19.47
2022-07-31T03:45:12.082Z,19.51
2022-07-31T03:47:39.328Z,19.56
2022-07-31T03:50:06.716Z,19.59
2022-07-31T03:52:33.570Z,19.67
2022-07-31T03:55:00.839Z,19.72
2022-07-31T03:57:29.046Z,19.78
2022-07-31T03:59:58.412Z,19.85
2022-07-31T04:02:27.669Z,19.90
2022-07-31T04:05:08.155Z,19.96
2022-07-31T04:07:36.858Z,20.03
2022-07-31T04:10:03.756Z,20.10
2022-07-31T04:12:30.633Z,20.18
2022-07-31T04:14:57.470Z,20.23
2022-07-31T04:17:24.237Z,20.31
2022-07-31T04:19:51.793Z,20.38
2022-07-31T04:22:18.675Z,20.46
2022-07-31T04:24:45.812Z,20.52
2022-07-31T04:27:48.717Z,20.58
2022-07-31T04:30:16.226Z,20.65
2022-07-31T04:32:44.033Z,20.70
2022-07-31T04:35:13.763Z,20.78
2022-07-31T04:37:40.871Z,20.85
2022-07-31T04:40:16.055Z,20.91
2022-07-31T04:42:43.025Z,20.95
2022-07-31T04:45:10.395Z,20.97
2022-07-31T04:47:38.230Z,20.97
2022-07-31T04:50:05.564Z,21.00
2022-07-31T04:52:32.862Z,21.04
2022-07-31T04:55:04.617Z,21.07
2022-07-31T04:57:31.899Z,21.08
2022-07-31T05:00:00.981Z,21.09
2022-07-31T05:02:31.500Z,21.09
2022-07-31T05:04:58.363Z,21.09
2022-07-31T05:07:31.327Z,21.12
2022-07-31T05:10:00.414Z,21.13
2022-07-31T05:12:27.230Z,21.17
2022-07-31T05:14:54.689Z,21.21
2022-07-31T05:17:21.655Z,21.26
2022-07-31T05:20:00.504Z,21.43
2022-07-31T05:22:50.437Z,21.69
2022-07-31T05:25:33.161Z,21.99
2022-07-31T05:27:59.906Z,22.29
2022-07-31T05:30:30.146Z,22.59
2022-07-31T05:32:58.555Z,22.89
2022-07-31T05:35:25.772Z,23.20
2022-07-31T05:37:52.743Z,23.51
2022-07-31T05:40:27.050Z,23.79
2022-07-31T05:43:32.253Z,24.07
2022-07-31T05:46:09.323Z,24.27
2022-07-31T05:48:36.293Z,24.44
2022-07-31T05:51:05.609Z,24.59
2022-07-31T05:53:32.691Z,24.78
2022-07-31T05:56:18.245Z,24.95
2022-07-31T05:58:49.421Z,25.05
2022-07-31T06:01:16.616Z,25.11
2022-07-31T06:03:52.456Z,25.16
2022-07-31T06:06:26.359Z,25.26
2022-07-31T06:08:53.243Z,25.37
2022-07-31T06:11:20.432Z,25.43
2022-07-31T06:13:47.263Z,25.44
2022-07-31T06:16:25.474Z,25.41
2022-07-31T06:18:52.561Z,25.34
2022-07-31T06:23:45.239Z,25.19
2022-07-31T06:26:34.843Z,25.08
2022-07-31T06:29:01.859Z,25.05
2022-07-31T06:31:28.669Z,24.98
2022-07-31T06:33:56.600Z,24.91
2022-07-31T06:36:25.992Z,24.85
2022-07-31T06:38:57.325Z,24.82
2022-07-31T06:41:45.164Z,24.83
2022-07-31T06:44:31.107Z,24.82
2022-07-31T06:47:21.408Z,24.79
2022-07-31T06:50:20.564Z,24.81
2022-07-31T06:53:07.593Z,24.85
2022-07-31T06:55:35.324Z,24.84
2022-07-31T06:58:02.077Z,24.83
2022-07-31T07:00:29.363Z,24.83
2022-07-31T07:02:56.569Z,24.84
2022-07-31T07:05:23.415Z,24.85
2022-07-31T07:07:52.257Z,24.85
2022-07-31T07:10:19.132Z,24.85
2022-07-31T07:12:57.834Z,24.86
2022-07-31T07:15:24.762Z,24.87
2022-07-31T07:17:51.798Z,24.88
2022-07-31T07:20:28.829Z,24.87
2022-07-31T07:22:55.818Z,24.84
2022-07-31T07:25:51.527Z,24.83
2022-07-31T07:28:30.383Z,24.83
2022-07-31T07:30:58.721Z,24.85
2022-07-31T07:33:41.710Z,24.89
2022-07-31T07:36:24.172Z,24.95
2022-07-31T07:39:01.907Z,25.00
2022-07-31T07:41:29.340Z,25.06
2022-07-31T07:43:56.097Z,25.09
2022-07-31T07:46:26.121Z,25.11
2022-07-31T07:48:57.480Z,25.12
2022-07-31T07:51:38.555Z,25.16
2022-07-31T07:55:00.325Z,25.24
2022-07-31T07:57:59.476Z,25.28
2022-07-31T08:00:44.927Z,25.30
2022-07-31T08:03:48.429Z,25.33
2022-07-31T08:05:58.516Z,25.34
2022-07-31T08:08:25.393Z,25.38
2022-07-31T08:11:21.063Z,25.42
2022-07-31T08:14:05.320Z,25.47
2022-07-31T08:16:32.660Z,25.55
2022-07-31T08:19:01.721Z,25.62
2022-07-31T08:21:29.507Z,25.65
2022-07-31T08:23:56.453Z,25.66
2022-07-31T08:26:23.154Z,25.67
2022-07-31T08:28:54.941Z,25.70
2022-07-31T08:31:23.338Z,25.71
2022-07-31T08:34:07.513Z,25.70
2022-07-31T08:36:34.673Z,25.72
2022-07-31T08:39:03.688Z,25.73
2022-07-31T08:41:46.111Z,25.77
2022-07-31T08:44:12.968Z,25.78
2022-07-31T08:46:40.395Z,25.78
2022-07-31T08:49:09.657Z,25.80
2022-07-31T08:51:51.597Z,25.81
2022-07-31T08:54:22.226Z,25.86
2022-07-31T08:56:52.502Z,25.88
2022-07-31T08:59:19.984Z,25.90
2022-07-31T09:01:47.417Z,25.94
2022-07-31T09:04:14.183Z,26.00
2022-07-31T09:06:41.879Z,26.09
2022-07-31T09:09:08.695Z,26.19
2022-07-31T09:11:35.570Z,26.27
2022-07-31T09:14:27.915Z,26.32
2022-07-31T09:16:55.033Z,26.34
2022-07-31T09:19:51.167Z,26.32
2022-07-31T09:22:24.178Z,26.38
2022-07-31T09:24:51.112Z,26.40
2022-07-31T09:27:18.091Z,26.40
2022-07-31T09:29:46.808Z,26.42
2022-07-31T09:32:24.543Z,26.47
2022-07-31T09:35:12.392Z,26.52
2022-07-31T09:37:40.181Z,26.55
2022-07-31T09:40:34.855Z,26.58
2022-07-31T09:43:24.774Z,26.60
2022-07-31T09:45:57.949Z,26.63
2022-07-31T09:48:26.770Z,26.68
2022-07-31T09:51:00.329Z,26.72
2022-07-31T09:53:45.439Z,26.75
2022-07-31T09:56:35.378Z,26.77
2022-07-31T09:59:02.912Z,26.78
2022-07-31T10:01:29.979Z,26.79
2022-07-31T10:03:58.951Z,26.80
2022-07-31T10:06:26.192Z,26.80
2022-07-31T10:08:52.931Z,26.81
2022-07-31T10:11:25.881Z,26.82
2022-07-31T10:14:17.948Z,26.85
2022-07-31T10:16:44.828Z,26.84
2022-07-31T10:19:37.567Z,26.85
2022-07-31T10:22:22.892Z,26.86
2022-07-31T10:24:51.490Z,26.87
2022-07-31T10:27:19.361Z,26.86
2022-07-31T10:29:51.574Z,26.86
2022-07-31T10:32:18.583Z,26.87
2022-07-31T10:35:11.975Z,26.87
2022-07-31T10:38:38.440Z,26.91
2022-07-31T10:41:38.518Z,26.93
2022-07-31T10:44:23.448Z,26.94
2022-07-31T10:46:59.204Z,26.95
2022-07-31T10:49:40.355Z,26.94
2022-07-31T10:52:37.212Z,26.99
2022-07-31T10:55:25.762Z,27.02
2022-07-31T10:58:17.340Z,27.08
2022-07-31T11:01:08.771Z,27.10
2022-07-31T11:03:49.633Z,27.09
2022-07-31T11:06:17.501Z,27.11
2022-07-31T11:09:21.077Z,27.11
2022-07-31T11:11:55.273Z,27.14
2022-07-31T11:14:41.852Z,27.16
2022-07-31T11:18:23.519Z,27.18
2022-07-31T11:20:39.583Z,27.20
2022-07-31T11:23:07.119Z,27.20
2022-07-31T11:25:37.392Z,27.23
2022-07-31T11:28:13.422Z,27.24
2022-07-31T11:30:52.908Z,27.24
2022-07-31T11:33:43.744Z,27.22
2022-07-31T11:36:13.477Z,27.20
2022-07-31T11:38:41.833Z,27.20
2022-07-31T11:41:08.776Z,27.20
2022-07-31T11:43:37.845Z,27.19
2022-07-31T11:46:05.078Z,27.20
2022-07-31T11:48:42.204Z,27.24
2022-07-31T11:51:17.454Z,27.25
2022-07-31T11:53:44.248Z,27.27
2022-07-31T11:56:11.087Z,27.28
2022-07-31T11:58:38.798Z,27.30
2022-07-31T12:01:05.627Z,27.33
2022-07-31T12:03:38.855Z,27.35
2022-07-31T12:06:06.693Z,27.36
2022-07-31T12:10:02.769Z,27.39
2022-07-31T12:12:11.819Z,27.40
2022-07-31T12:14:39.599Z,27.43
2022-07-31T12:17:07.159Z,27.48
2022-07-31T12:19:38.681Z,27.52
2022-07-31T12:22:18.258Z,27.56
2022-07-31T12:24:45.180Z,27.60
2022-07-31T12:27:15.746Z,27.63
2022-07-31T12:29:42.821Z,27.65
2022-07-31T12:32:09.630Z,27.69
2022-07-31T12:34:38.411Z,27.69
2022-07-31T12:37:12.533Z,27.70
2022-07-31T12:39:59.682Z,27.71
2022-07-31T12:42:40.817Z,27.74
2022-07-31T12:45:19.322Z,27.75
2022-07-31T12:47:51.244Z,27.75
2022-07-31T12:50:20.532Z,27.76
2022-07-31T12:52:47.291Z,27.77
2022-07-31T12:55:17.232Z,27.77
2022-07-31T12:57:51.361Z,27.75
2022-07-31T13:00:22.494Z,27.76
2022-07-31T13:02:50.501Z,27.77
2022-07-31T13:05:17.423Z,27.77
2022-07-31T13:07:44.238Z,27.75
2022-07-31T13:10:19.868Z,27.73
2022-07-31T13:12:52.047Z,27.74
2022-07-31T13:15:20.725Z,27.73
2022-07-31T13:17:50.373Z,27.74
2022-07-31T13:20:18.048Z,27.76
2022-07-31T13:22:44.863Z,27.77
2022-07-31T13:25:11.736Z,27.79
2022-07-31T13:27:38.610Z,27.78
2022-07-31T13:30:05.935Z,27.76
2022-07-31T13:32:32.801Z,27.76
2022-07-31T13:35:24.001Z,27.76
2022-07-31T13:37:46.957Z,27.76
2022-07-31T13:40:14.139Z,27.78
2022-07-31T13:42:40.890Z,27.79
2022-07-31T13:45:08.755Z,27.81
2022-07-31T13:47:51.703Z,27.80
2022-07-31T13:50:19.438Z,27.76
2022-07-31T13:52:46.237Z,27.76
2022-07-31T13:55:13.003Z,27.74
2022-07-31T13:57:39.775Z,27.72
2022-07-31T14:00:07.589Z,27.73
2022-07-31T14:02:34.508Z,27.76
2022-07-31T14:05:01.422Z,27.78
2022-07-31T14:07:45.698Z,27.79
2022-07-31T14:10:19.865Z,27.79
2022-07-31T14:12:47.964Z,27.81
2022-07-31T14:15:14.792Z,27.79
2022-07-31T14:17:41.550Z,27.79
2022-07-31T14:20:09.040Z,27.79
2022-07-31T14:22:35.830Z,27.79
2022-07-31T14:25:02.634Z,27.77
2022-07-31T14:27:29.834Z,27.75
2022-07-31T14:29:56.875Z,27.75
2022-07-31T14:32:25.106Z,27.75
2022-07-31T14:34:52.195Z,27.74
2022-07-31T14:37:20.045Z,27.72
2022-07-31T14:39:46.890Z,27.73
2022-07-31T14:42:13.762Z,27.73
2022-07-31T14:44:42.134Z,27.72
2022-07-31T14:47:10.250Z,27.72
2022-07-31T14:50:08.373Z,27.73
2022-07-31T14:52:23.978Z,27.71
2022-07-31T14:54:50.775Z,27.68
2022-07-31T14:57:20.034Z,27.65
2022-07-31T14:59:50.323Z,27.64
2022-07-31T15:02:22.184Z,27.62
2022-07-31T15:04:50.700Z,27.58
2022-07-31T15:07:34.762Z,27.50
2022-07-31T15:10:04.396Z,27.47
2022-07-31T15:12:31.225Z,27.43
2022-07-31T15:14:57.963Z,27.39
2022-07-31T15:17:24.892Z,27.37
2022-07-31T15:19:51.709Z,27.34
2022-07-31T15:22:19.439Z,27.32
2022-07-31T15:24:49.122Z,27.29
2022-07-31T15:27:19.876Z,27.26
2022-07-31T15:30:00.561Z,27.26
2022-07-31T15:32:37.357Z,27.24
2022-07-31T15:35:05.374Z,27.23
2022-07-31T15:37:39.592Z,27.21
2022-07-31T15:40:08.358Z,27.17
2022-07-31T15:42:38.416Z,27.13
2022-07-31T15:45:06.735Z,27.09
2022-07-31T15:47:33.472Z,27.06
2022-07-31T15:50:00.461Z,27.03
2022-07-31T15:52:27.253Z,27.00
2022-07-31T15:54:54.038Z,26.97
2022-07-31T15:57:21.683Z,26.92
2022-07-31T15:59:49.568Z,26.90
2022-07-31T16:02:16.612Z,26.85
2022-07-31T16:04:51.968Z,26.81
2022-07-31T16:08:29.337Z,26.76
2022-07-31T16:10:16.808Z,26.71
2022-07-31T16:12:45.349Z,26.68
2022-07-31T16:15:12.759Z,26.64
2022-07-31T16:17:40.080Z,26.58
2022-07-31T16:20:25.735Z,26.54
2022-07-31T16:22:58.470Z,26.49
2022-07-31T16:25:25.809Z,26.44
2022-07-31T16:27:52.705Z,26.40
2022-07-31T16:30:19.676Z,26.36
2022-07-31T16:32:46.458Z,26.30
2022-07-31T16:35:13.328Z,26.30
2022-07-31T16:37:50.195Z,26.27
2022-07-31T16:40:28.509Z,26.21
2022-07-31T16:43:03.030Z,26.17
2022-07-31T16:45:48.836Z,26.11
2022-07-31T16:48:15.608Z,26.05
2022-07-31T16:50:42.310Z,26.02
2022-07-31T16:53:09.110Z,25.97
2022-07-31T16:55:59.764Z,25.92
2022-07-31T16:58:27.299Z,25.85
2022-07-31T17:00:54.105Z,25.80
2022-07-31T17:04:02.131Z,25.76
2022-07-31T17:06:10.527Z,25.70
2022-07-31T17:08:38.289Z,25.66
2022-07-31T17:11:05.565Z,25.53
2022-07-31T17:13:32.529Z,25.35
2022-07-31T17:15:59.274Z,25.17
2022-07-31T17:18:26.157Z,24.97
2022-07-31T17:20:56.959Z,24.84
2022-07-31T17:23:42.826Z,24.69
2022-07-31T17:26:21.115Z,24.53
2022-07-31T17:28:51.940Z,24.41
2022-07-31T17:31:19.094Z,24.29
2022-07-31T17:33:58.249Z,24.18
2022-07-31T17:36:26.961Z,24.09
2022-07-31T17:38:53.765Z,24.04
2022-07-31T17:41:25.465Z,23.99
2022-07-31T17:43:54.288Z,23.94
2022-07-31T17:46:29.948Z,23.90
2022-07-31T17:49:09.095Z,23.83
2022-07-31T17:51:35.828Z,23.79
2022-07-31T17:54:02.757Z,23.75
2022-07-31T17:56:29.502Z,23.69
2022-07-31T17:59:03.720Z,23.67
2022-07-31T18:01:30.795Z,23.67
2022-07-31T18:03:57.661Z,23.69
2022-07-31T18:06:24.483Z,23.71
2022-07-31T18:08:51.418Z,23.72
2022-07-31T18:11:18.246Z,23.73
2022-07-31T18:13:48.096Z,23.74
2022-07-31T18:16:15.666Z,23.74
2022-07-31T18:18:42.433Z,23.74
2022-07-31T18:21:09.421Z,23.72
2022-07-31T18:23:36.192Z,23.70
2022-07-31T18:26:03.974Z,23.70
2022-07-31T18:28:32.052Z,23.69
2022-07-31T18:31:01.802Z,23.67
2022-07-31T18:33:28.633Z,23.65
2022-07-31T18:35:55.387Z,23.63
2022-07-31T18:38:22.224Z,23.59
2022-07-31T18:40:49.143Z,23.56
2022-07-31T18:43:16.024Z,23.55
2022-07-31T18:45:43.164Z,23.51
2022-07-31T18:48:10.078Z,23.50
2022-07-31T18:51:01.208Z,23.48
2022-07-31T18:53:23.768Z,23.46
2022-07-31T18:55:50.635Z,23.44
2022-07-31T18:58:17.453Z,23.41
2022-07-31T19:00:44.346Z,23.42
2022-07-31T19:03:11.320Z,23.40
2022-07-31T19:05:38.108Z,23.37
2022-07-31T19:08:05.637Z,23.36
2022-07-31T19:10:32.475Z,23.36
2022-07-31T19:12:59.609Z,23.34
2022-07-31T19:15:26.424Z,23.32
2022-07-31T19:17:57.712Z,23.30
2022-07-31T19:20:56.543Z,23.31
2022-07-31T19:23:14.166Z,23.29
2022-07-31T19:25:55.717Z,23.27
2022-07-31T19:28:30.913Z,23.25
2022-07-31T19:30:57.763Z,23.23
2022-07-31T19:33:24.843Z,23.19
2022-07-31T19:35:58.482Z,23.18
2022-07-31T19:38:28.428Z,23.15
2022-07-31T19:40:55.362Z,23.13
2022-07-31T19:43:22.213Z,23.11
2022-07-31T19:46:10.840Z,23.09
2022-07-31T19:48:36.666Z,23.07
2022-07-31T19:51:04.331Z,23.05
2022-07-31T19:53:31.290Z,23.02
2022-07-31T19:55:58.213Z,22.99
2022-07-31T19:58:25.088Z,22.94
2022-07-31T20:00:51.898Z,22.91
2022-07-31T20:03:18.781Z,22.88
2022-07-31T20:05:45.684Z,22.85
2022-07-31T20:08:12.432Z,22.82
2022-07-31T20:10:39.195Z,22.78
2022-07-31T20:13:06.009Z,22.74
2022-07-31T20:15:52.345Z,22.70
2022-07-31T20:18:29.810Z,22.62
2022-07-31T20:20:58.529Z,22.60
2022-07-31T20:23:26.292Z,22.53
2022-07-31T20:25:53.133Z,22.52
2022-07-31T20:28:19.932Z,22.50
2022-07-31T20:30:46.746Z,22.46
2022-07-31T20:33:13.658Z,22.43
2022-07-31T20:35:49.153Z,22.40
2022-07-31T20:38:20.764Z,22.38
2022-07-31T20:40:53.642Z,22.35
2022-07-31T20:43:26.410Z,22.33
2022-07-31T20:45:53.888Z,22.30
2022-07-31T20:48:24.154Z,22.27
2022-07-31T20:50:51.496Z,22.22
2022-07-31T20:53:19.345Z,22.20
2022-07-31T20:55:49.184Z,22.19
2022-07-31T20:58:20.135Z,22.18
2022-07-31T21:00:47.713Z,22.16
2022-07-31T21:03:15.105Z,22.14
2022-07-31T21:05:42.007Z,22.10
2022-07-31T21:08:08.836Z,22.08
2022-07-31T21:10:36.070Z,22.05
2022-07-31T21:13:03.047Z,22.03
2022-07-31T21:15:42.689Z,21.99
2022-07-31T21:18:12.780Z,21.96
2022-07-31T21:20:50.807Z,21.93
2022-07-31T21:23:19.551Z,21.90
2022-07-31T21:25:46.609Z,21.88
2022-07-31T21:28:13.527Z,21.86
2022-07-31T21:30:40.531Z,21.84
2022-07-31T21:33:07.671Z,21.82
2022-07-31T21:35:37.138Z,21.81
2022-07-31T21:38:04.615Z,21.79
2022-07-31T21:40:34.008Z,21.77
2022-07-31T21:43:01.055Z,21.76
2022-07-31T21:45:36.729Z,21.74
2022-07-31T21:48:16.307Z,21.71
2022-07-31T21:50:44.836Z,21.67
2022-07-31T21:53:12.329Z,21.64
2022-07-31T21:55:39.404Z,21.61
2022-07-31T21:58:06.298Z,21.60
2022-07-31T22:00:34.283Z,21.58
2022-07-31T22:03:02.904Z,21.57
2022-07-31T22:05:48.820Z,21.54
2022-07-31T22:08:15.746Z,21.51
2022-07-31T22:10:42.589Z,21.50
2022-07-31T22:13:09.390Z,21.49
2022-07-31T22:15:58.081Z,21.49
2022-07-31T22:18:23.230Z,21.46
2022-07-31T22:20:53.918Z,21.46
2022-07-31T22:23:20.972Z,21.44
2022-07-31T22:25:49.114Z,21.41
2022-07-31T22:28:17.432Z,21.37
2022-07-31T22:30:44.463Z,21.34
2022-07-31T22:33:11.328Z,21.30
2022-07-31T22:35:38.410Z,21.27
2022-07-31T22:38:05.223Z,21.22
2022-07-31T22:40:32.039Z,21.20
2022-07-31T22:42:59.630Z,21.17
2022-07-31T22:45:29.596Z,21.14
2022-07-31T22:47:56.896Z,21.11
2022-07-31T22:50:23.718Z,21.10
2022-07-31T22:52:50.495Z,21.08
2022-07-31T22:55:17.282Z,21.05
2022-07-31T22:57:44.933Z,20.99
2022-07-31T23:00:13.364Z,20.95
2022-07-31T23:02:40.747Z,20.90
2022-07-31T23:05:08.120Z,20.83
2022-07-31T23:07:34.858Z,20.80
2022-07-31T23:10:01.621Z,20.76
2022-07-31T23:12:28.544Z,20.71
2022-07-31T23:14:56.208Z,20.67
2022-07-31T23:17:23.547Z,20.63
2022-07-31T23:19:53.749Z,20.56
2022-07-31T23:22:33.977Z,20.54
2022-07-31T23:25:02.886Z,20.51
2022-07-31T23:27:29.641Z,20.46
2022-07-31T23:29:56.444Z,20.40
2022-07-31T23:32:23.197Z,20.38
2022-07-31T23:34:49.939Z,20.34
2022-07-31T23:37:16.793Z,20.32
2022-07-31T23:39:43.557Z,20.29
2022-07-31T23:42:29.069Z,20.26
2022-07-31T23:44:55.858Z,20.22
2022-07-31T23:47:24.242Z,20.18
2022-07-31T23:50:11.034Z,20.14
2022-07-31T23:52:37.807Z,20.10
2022-07-31T23:55:05.069Z,20.08
2022-07-31T23:57:34.280Z,20.05
